sensor_id;sensor_type;location;lat;lon;timestamp;P1;durP1;ratioP1;P2;durP2;ratioP2
63312;SDS011;49442;45.640;13.812;2023-12-14T00:00:19;0.20;;;0.20;;
63312;SDS011;49442;45.640;13.812;2023-12-14T00:02:44;0.35;;;0.30;;
63312;SDS011;49442;45.640;13.812;2023-12-14T00:05:10;0.30;;;0.30;;
63312;SDS011;49442;45.640;13.812;2023-12-14T00:07:36;0.20;;;0.20;;
63312;SDS011;49442;45.640;13.812;2023-12-14T00:10:02;1.38;;;0.25;;
63312;SDS011;49442;45.640;13.812;2023-12-14T00:12:29;1.88;;;1.27;;
63312;SDS011;49442;45.640;13.812;2023-12-14T00:14:55;1.33;;;0.30;;
63312;SDS011;49442;45.640;13.812;2023-12-14T00:17:21;0.28;;;0.28;;
63312;SDS011;49442;45.640;13.812;2023-12-14T00:19:47;0.20;;;0.20;;
63312;SDS011;49442;45.640;13.812;2023-12-14T00:22:12;0.20;;;0.20;;
63312;SDS011;49442;45.640;13.812;2023-12-14T00:24:38;0.20;;;0.20;;
63312;SDS011;49442;45.640;13.812;2023-12-14T00:27:04;0.20;;;0.20;;
63312;SDS011;49442;45.640;13.812;2023-12-14T00:29:30;1.45;;;0.30;;
63312;SDS011;49442;45.640;13.812;2023-12-14T00:31:56;1.35;;;0.30;;
63312;SDS011;49442;45.640;13.812;2023-12-14T00:34:21;1.25;;;0.28;;
63312;SDS011;49442;45.640;13.812;2023-12-14T00:36:47;0.20;;;0.20;;
63312;SDS011;49442;45.640;13.812;2023-12-14T00:39:13;0.22;;;0.22;;
63312;SDS011;49442;45.640;13.812;2023-12-14T00:41:38;0.20;;;0.20;;
63312;SDS011;49442;45.640;13.812;2023-12-14T00:44:04;0.20;;;0.20;;
63312;SDS011;49442;45.640;13.812;2023-12-14T00:46:30;0.25;;;0.25;;
63312;SDS011;49442;45.640;13.812;2023-12-14T00:48:55;0.30;;;0.30;;
63312;SDS011;49442;45.640;13.812;2023-12-14T00:51:21;0.20;;;0.20;;
63312;SDS011;49442;45.640;13.812;2023-12-14T00:53:46;1.00;;;0.30;;
63312;SDS011;49442;45.640;13.812;2023-12-14T00:56:12;0.10;;;0.10;;
63312;SDS011;49442;45.640;13.812;2023-12-14T00:58:38;0.20;;;0.20;;
63312;SDS011;49442;45.640;13.812;2023-12-14T01:01:04;0.20;;;0.20;;
63312;SDS011;49442;45.640;13.812;2023-12-14T01:03:29;0.20;;;0.20;;
63312;SDS011;49442;45.640;13.812;2023-12-14T01:05:55;5.72;;;0.30;;
63312;SDS011;49442;45.640;13.812;2023-12-14T01:08:21;0.20;;;0.20;;
63312;SDS011;49442;45.640;13.812;2023-12-14T01:10:46;2.28;;;0.30;;
63312;SDS011;49442;45.640;13.812;2023-12-14T01:13:12;0.20;;;0.20;;
63312;SDS011;49442;45.640;13.812;2023-12-14T01:15:38;0.20;;;0.20;;
63312;SDS011;49442;45.640;13.812;2023-12-14T01:18:03;0.20;;;0.20;;
63312;SDS011;49442;45.640;13.812;2023-12-14T01:20:29;3.72;;;0.30;;
63312;SDS011;49442;45.640;13.812;2023-12-14T01:22:55;0.30;;;0.30;;
63312;SDS011;49442;45.640;13.812;2023-12-14T01:25:21;0.20;;;0.20;;
63312;SDS011;49442;45.640;13.812;2023-12-14T01:27:46;0.20;;;0.20;;
63312;SDS011;49442;45.640;13.812;2023-12-14T01:30:12;0.20;;;0.20;;
63312;SDS011;49442;45.640;13.812;2023-12-14T01:32:38;1.13;;;0.22;;
63312;SDS011;49442;45.640;13.812;2023-12-14T01:35:04;0.20;;;0.20;;
63312;SDS011;49442;45.640;13.812;2023-12-14T01:37:30;0.20;;;0.20;;
63312;SDS011;49442;45.640;13.812;2023-12-14T01:39:55;0.22;;;0.22;;
63312;SDS011;49442;45.640;13.812;2023-12-14T01:42:21;0.20;;;0.20;;
63312;SDS011;49442;45.640;13.812;2023-12-14T01:44:47;0.20;;;0.20;;
63312;SDS011;49442;45.640;13.812;2023-12-14T01:47:12;0.20;;;0.20;;
63312;SDS011;49442;45.640;13.812;2023-12-14T01:49:38;0.28;;;0.28;;
63312;SDS011;49442;45.640;13.812;2023-12-14T01:52:06;0.32;;;0.32;;
63312;SDS011;49442;45.640;13.812;2023-12-14T01:54:32;0.75;;;0.45;;
63312;SDS011;49442;45.640;13.812;2023-12-14T01:56:58;0.30;;;0.30;;
63312;SDS011;49442;45.640;13.812;2023-12-14T01:59:24;0.22;;;0.22;;
63312;SDS011;49442;45.640;13.812;2023-12-14T02:01:54;0.30;;;0.30;;
63312;SDS011;49442;45.640;13.812;2023-12-14T02:04:22;0.47;;;0.47;;
63312;SDS011;49442;45.640;13.812;2023-12-14T02:06:48;0.40;;;0.30;;
63312;SDS011;49442;45.640;13.812;2023-12-14T02:09:14;0.30;;;0.30;;
63312;SDS011;49442;45.640;13.812;2023-12-14T02:11:40;0.52;;;0.30;;
63312;SDS011;49442;45.640;13.812;2023-12-14T02:14:06;0.20;;;0.20;;
63312;SDS011;49442;45.640;13.812;2023-12-14T02:16:33;0.30;;;0.30;;
63312;SDS011;49442;45.640;13.812;2023-12-14T02:18:59;0.30;;;0.30;;
63312;SDS011;49442;45.640;13.812;2023-12-14T02:21:25;0.20;;;0.20;;
63312;SDS011;49442;45.640;13.812;2023-12-14T02:23:50;4.20;;;0.30;;
63312;SDS011;49442;45.640;13.812;2023-12-14T02:26:16;0.20;;;0.20;;
63312;SDS011;49442;45.640;13.812;2023-12-14T02:28:42;0.20;;;0.20;;
63312;SDS011;49442;45.640;13.812;2023-12-14T02:31:07;0.20;;;0.20;;
63312;SDS011;49442;45.640;13.812;2023-12-14T02:33:33;0.20;;;0.20;;
63312;SDS011;49442;45.640;13.812;2023-12-14T02:35:59;0.30;;;0.30;;
63312;SDS011;49442;45.640;13.812;2023-12-14T02:38:25;0.20;;;0.20;;
63312;SDS011;49442;45.640;13.812;2023-12-14T02:40:51;2.65;;;0.30;;
63312;SDS011;49442;45.640;13.812;2023-12-14T02:43:17;0.30;;;0.30;;
63312;SDS011;49442;45.640;13.812;2023-12-14T02:45:44;0.30;;;0.30;;
63312;SDS011;49442;45.640;13.812;2023-12-14T02:48:10;1.85;;;0.30;;
63312;SDS011;49442;45.640;13.812;2023-12-14T02:50:35;0.20;;;0.20;;
63312;SDS011;49442;45.640;13.812;2023-12-14T02:53:01;0.20;;;0.20;;
63312;SDS011;49442;45.640;13.812;2023-12-14T02:55:27;0.20;;;0.20;;
63312;SDS011;49442;45.640;13.812;2023-12-14T02:57:53;0.30;;;0.30;;
63312;SDS011;49442;45.640;13.812;2023-12-14T03:00:19;0.32;;;0.30;;
63312;SDS011;49442;45.640;13.812;2023-12-14T03:02:44;1.17;;;0.30;;
63312;SDS011;49442;45.640;13.812;2023-12-14T03:05:10;0.28;;;0.28;;
63312;SDS011;49442;45.640;13.812;2023-12-14T03:07:36;0.30;;;0.30;;
63312;SDS011;49442;45.640;13.812;2023-12-14T03:10:02;0.63;;;0.30;;
63312;SDS011;49442;45.640;13.812;2023-12-14T03:12:29;0.30;;;0.30;;
63312;SDS011;49442;45.640;13.812;2023-12-14T03:14:54;0.20;;;0.20;;
63312;SDS011;49442;45.640;13.812;2023-12-14T03:17:20;4.00;;;0.30;;
63312;SDS011;49442;45.640;13.812;2023-12-14T03:19:46;0.20;;;0.20;;
63312;SDS011;49442;45.640;13.812;2023-12-14T03:22:12;0.20;;;0.20;;
63312;SDS011;49442;45.640;13.812;2023-12-14T03:24:38;0.20;;;0.20;;
63312;SDS011;49442;45.640;13.812;2023-12-14T03:27:03;0.30;;;0.30;;
63312;SDS011;49442;45.640;13.812;2023-12-14T03:29:30;0.30;;;0.30;;
63312;SDS011;49442;45.640;13.812;2023-12-14T03:31:56;0.20;;;0.20;;
63312;SDS011;49442;45.640;13.812;2023-12-14T03:34:22;0.20;;;0.20;;
63312;SDS011;49442;45.640;13.812;2023-12-14T03:36:49;0.30;;;0.30;;
63312;SDS011;49442;45.640;13.812;2023-12-14T03:39:15;0.45;;;0.35;;
63312;SDS011;49442;45.640;13.812;2023-12-14T03:41:44;0.20;;;0.20;;
63312;SDS011;49442;45.640;13.812;2023-12-14T03:44:10;0.47;;;0.20;;
63312;SDS011;49442;45.640;13.812;2023-12-14T03:46:36;0.55;;;0.20;;
63312;SDS011;49442;45.640;13.812;2023-12-14T03:49:02;0.15;;;0.15;;
63312;SDS011;49442;45.640;13.812;2023-12-14T03:51:29;3.88;;;0.30;;
63312;SDS011;49442;45.640;13.812;2023-12-14T03:53:54;0.20;;;0.20;;
63312;SDS011;49442;45.640;13.812;2023-12-14T03:56:20;0.20;;;0.20;;
63312;SDS011;49442;45.640;13.812;2023-12-14T03:58:47;1.23;;;0.40;;
63312;SDS011;49442;45.640;13.812;2023-12-14T04:01:19;0.20;;;0.20;;
63312;SDS011;49442;45.640;13.812;2023-12-14T04:03:46;0.68;;;0.20;;
63312;SDS011;49442;45.640;13.812;2023-12-14T04:06:12;0.20;;;0.20;;
63312;SDS011;49442;45.640;13.812;2023-12-14T04:08:38;0.20;;;0.20;;
63312;SDS011;49442;45.640;13.812;2023-12-14T04:11:04;2.42;;;0.30;;
63312;SDS011;49442;45.640;13.812;2023-12-14T04:13:30;0.30;;;0.30;;
63312;SDS011;49442;45.640;13.812;2023-12-14T04:15:56;0.52;;;0.30;;
63312;SDS011;49442;45.640;13.812;2023-12-14T04:18:22;0.20;;;0.20;;
63312;SDS011;49442;45.640;13.812;2023-12-14T04:20:48;0.55;;;0.30;;
63312;SDS011;49442;45.640;13.812;2023-12-14T04:23:14;1.08;;;0.35;;
63312;SDS011;49442;45.640;13.812;2023-12-14T04:25:39;0.20;;;0.20;;
63312;SDS011;49442;45.640;13.812;2023-12-14T04:28:05;0.50;;;0.50;;
63312;SDS011;49442;45.640;13.812;2023-12-14T04:30:31;0.20;;;0.20;;
63312;SDS011;49442;45.640;13.812;2023-12-14T04:32:56;0.20;;;0.20;;
63312;SDS011;49442;45.640;13.812;2023-12-14T04:35:22;0.30;;;0.30;;
63312;SDS011;49442;45.640;13.812;2023-12-14T04:37:48;0.50;;;0.40;;
63312;SDS011;49442;45.640;13.812;2023-12-14T04:40:14;0.20;;;0.20;;
63312;SDS011;49442;45.640;13.812;2023-12-14T04:42:39;0.40;;;0.40;;
63312;SDS011;49442;45.640;13.812;2023-12-14T04:45:05;1.27;;;0.68;;
63312;SDS011;49442;45.640;13.812;2023-12-14T04:47:31;0.22;;;0.22;;
63312;SDS011;49442;45.640;13.812;2023-12-14T04:49:57;1.85;;;0.40;;
63312;SDS011;49442;45.640;13.812;2023-12-14T04:52:22;0.45;;;0.30;;
63312;SDS011;49442;45.640;13.812;2023-12-14T04:54:48;0.40;;;0.40;;
63312;SDS011;49442;45.640;13.812;2023-12-14T04:57:14;0.30;;;0.30;;
63312;SDS011;49442;45.640;13.812;2023-12-14T04:59:43;0.30;;;0.30;;
63312;SDS011;49442;45.640;13.812;2023-12-14T05:02:09;0.25;;;0.25;;
63312;SDS011;49442;45.640;13.812;2023-12-14T05:04:34;0.30;;;0.30;;
63312;SDS011;49442;45.640;13.812;2023-12-14T05:07:00;0.32;;;0.30;;
63312;SDS011;49442;45.640;13.812;2023-12-14T05:09:26;0.20;;;0.20;;
63312;SDS011;49442;45.640;13.812;2023-12-14T05:11:53;0.47;;;0.47;;
63312;SDS011;49442;45.640;13.812;2023-12-14T05:14:18;0.30;;;0.30;;
63312;SDS011;49442;45.640;13.812;2023-12-14T05:16:44;0.63;;;0.40;;
63312;SDS011;49442;45.640;13.812;2023-12-14T05:19:10;0.40;;;0.40;;
63312;SDS011;49442;45.640;13.812;2023-12-14T05:21:37;0.47;;;0.40;;
63312;SDS011;49442;45.640;13.812;2023-12-14T05:24:03;0.30;;;0.30;;
63312;SDS011;49442;45.640;13.812;2023-12-14T05:26:29;0.93;;;0.35;;
63312;SDS011;49442;45.640;13.812;2023-12-14T05:28:55;2.67;;;0.47;;
63312;SDS011;49442;45.640;13.812;2023-12-14T05:31:21;0.35;;;0.35;;
63312;SDS011;49442;45.640;13.812;2023-12-14T05:33:46;0.40;;;0.40;;
63312;SDS011;49442;45.640;13.812;2023-12-14T05:36:12;0.40;;;0.40;;
63312;SDS011;49442;45.640;13.812;2023-12-14T05:38:38;0.32;;;0.30;;
63312;SDS011;49442;45.640;13.812;2023-12-14T05:41:04;0.47;;;0.47;;
63312;SDS011;49442;45.640;13.812;2023-12-14T05:43:30;0.35;;;0.35;;
63312;SDS011;49442;45.640;13.812;2023-12-14T05:45:56;0.30;;;0.30;;
63312;SDS011;49442;45.640;13.812;2023-12-14T05:48:22;0.40;;;0.40;;
63312;SDS011;49442;45.640;13.812;2023-12-14T05:50:47;0.40;;;0.40;;
63312;SDS011;49442;45.640;13.812;2023-12-14T05:53:13;0.43;;;0.40;;
63312;SDS011;49442;45.640;13.812;2023-12-14T05:55:39;0.40;;;0.30;;
63312;SDS011;49442;45.640;13.812;2023-12-14T05:58:06;0.30;;;0.30;;
63312;SDS011;49442;45.640;13.812;2023-12-14T06:00:32;0.30;;;0.30;;
63312;SDS011;49442;45.640;13.812;2023-12-14T06:02:59;0.38;;;0.38;;
63312;SDS011;49442;45.640;13.812;2023-12-14T06:05:25;0.30;;;0.30;;
63312;SDS011;49442;45.640;13.812;2023-12-14T06:07:51;0.30;;;0.30;;
63312;SDS011;49442;45.640;13.812;2023-12-14T06:10:17;0.73;;;0.50;;
63312;SDS011;49442;45.640;13.812;2023-12-14T06:12:43;0.40;;;0.40;;
63312;SDS011;49442;45.640;13.812;2023-12-14T06:15:08;0.50;;;0.50;;
63312;SDS011;49442;45.640;13.812;2023-12-14T06:17:36;0.70;;;0.45;;
63312;SDS011;49442;45.640;13.812;2023-12-14T06:20:04;0.65;;;0.40;;
63312;SDS011;49442;45.640;13.812;2023-12-14T06:22:31;0.63;;;0.60;;
63312;SDS011;49442;45.640;13.812;2023-12-14T06:24:58;0.60;;;0.35;;
63312;SDS011;49442;45.640;13.812;2023-12-14T06:27:23;0.50;;;0.50;;
63312;SDS011;49442;45.640;13.812;2023-12-14T06:29:51;0.63;;;0.55;;
63312;SDS011;49442;45.640;13.812;2023-12-14T06:32:17;0.50;;;0.50;;
63312;SDS011;49442;45.640;13.812;2023-12-14T06:34:43;0.63;;;0.50;;
63312;SDS011;49442;45.640;13.812;2023-12-14T06:37:08;0.88;;;0.50;;
63312;SDS011;49442;45.640;13.812;2023-12-14T06:39:35;0.73;;;0.73;;
63312;SDS011;49442;45.640;13.812;2023-12-14T06:42:01;0.90;;;0.60;;
63312;SDS011;49442;45.640;13.812;2023-12-14T06:44:27;1.48;;;0.80;;
63312;SDS011;49442;45.640;13.812;2023-12-14T06:46:53;0.98;;;0.50;;
63312;SDS011;49442;45.640;13.812;2023-12-14T06:49:20;4.03;;;1.27;;
63312;SDS011;49442;45.640;13.812;2023-12-14T06:51:46;0.40;;;0.40;;
63312;SDS011;49442;45.640;13.812;2023-12-14T06:54:11;1.30;;;0.98;;
63312;SDS011;49442;45.640;13.812;2023-12-14T06:56:37;0.73;;;0.70;;
63312;SDS011;49442;45.640;13.812;2023-12-14T06:59:03;0.77;;;0.77;;
63312;SDS011;49442;45.640;13.812;2023-12-14T07:01:28;1.50;;;0.52;;
63312;SDS011;49442;45.640;13.812;2023-12-14T07:03:54;1.13;;;0.63;;
63312;SDS011;49442;45.640;13.812;2023-12-14T07:06:20;1.30;;;1.02;;
63312;SDS011;49442;45.640;13.812;2023-12-14T07:08:46;1.02;;;0.85;;
63312;SDS011;49442;45.640;13.812;2023-12-14T07:11:12;2.83;;;0.70;;
63312;SDS011;49442;45.640;13.812;2023-12-14T07:13:38;1.15;;;1.05;;
63312;SDS011;49442;45.640;13.812;2023-12-14T07:16:08;2.75;;;2.10;;
63312;SDS011;49442;45.640;13.812;2023-12-14T07:18:35;2.10;;;1.90;;
63312;SDS011;49442;45.640;13.812;2023-12-14T07:21:05;2.40;;;1.50;;
63312;SDS011;49442;45.640;13.812;2023-12-14T07:23:32;4.43;;;1.75;;
63312;SDS011;49442;45.640;13.812;2023-12-14T07:25:58;1.35;;;0.88;;
63312;SDS011;49442;45.640;13.812;2023-12-14T07:28:24;2.55;;;2.28;;
63312;SDS011;49442;45.640;13.812;2023-12-14T07:30:49;2.00;;;0.90;;
63312;SDS011;49442;45.640;13.812;2023-12-14T07:33:15;2.55;;;0.47;;
63312;SDS011;49442;45.640;13.812;2023-12-14T07:35:41;2.63;;;0.70;;
63312;SDS011;49442;45.640;13.812;2023-12-14T07:38:09;1.02;;;0.70;;
63312;SDS011;49442;45.640;13.812;2023-12-14T07:40:35;3.38;;;1.02;;
63312;SDS011;49442;45.640;13.812;2023-12-14T07:43:01;2.13;;;0.60;;
63312;SDS011;49442;45.640;13.812;2023-12-14T07:45:26;5.55;;;1.15;;
63312;SDS011;49442;45.640;13.812;2023-12-14T07:47:52;1.83;;;0.82;;
63312;SDS011;49442;45.640;13.812;2023-12-14T07:50:18;1.75;;;0.60;;
63312;SDS011;49442;45.640;13.812;2023-12-14T07:52:44;0.98;;;0.70;;
63312;SDS011;49442;45.640;13.812;2023-12-14T07:55:10;1.33;;;0.70;;
63312;SDS011;49442;45.640;13.812;2023-12-14T07:57:38;1.33;;;0.63;;
63312;SDS011;49442;45.640;13.812;2023-12-14T08:00:04;0.55;;;0.52;;
63312;SDS011;49442;45.640;13.812;2023-12-14T08:02:30;2.70;;;0.88;;
63312;SDS011;49442;45.640;13.812;2023-12-14T08:04:59;7.00;;;0.90;;
63312;SDS011;49442;45.640;13.812;2023-12-14T08:07:24;3.42;;;0.70;;
63312;SDS011;49442;45.640;13.812;2023-12-14T08:09:54;1.42;;;0.80;;
63312;SDS011;49442;45.640;13.812;2023-12-14T08:12:20;1.85;;;1.27;;
63312;SDS011;49442;45.640;13.812;2023-12-14T08:14:47;3.92;;;0.80;;
63312;SDS011;49442;45.640;13.812;2023-12-14T08:17:12;1.13;;;0.60;;
63312;SDS011;49442;45.640;13.812;2023-12-14T08:19:38;6.80;;;0.70;;
63312;SDS011;49442;45.640;13.812;2023-12-14T08:22:04;0.80;;;0.75;;
63312;SDS011;49442;45.640;13.812;2023-12-14T08:24:29;0.80;;;0.60;;
63312;SDS011;49442;45.640;13.812;2023-12-14T08:26:59;3.97;;;0.63;;
63312;SDS011;49442;45.640;13.812;2023-12-14T08:29:24;0.85;;;0.60;;
63312;SDS011;49442;45.640;13.812;2023-12-14T08:31:50;1.10;;;0.73;;
63312;SDS011;49442;45.640;13.812;2023-12-14T08:34:16;1.33;;;0.52;;
63312;SDS011;49442;45.640;13.812;2023-12-14T08:36:41;3.05;;;1.05;;
63312;SDS011;49442;45.640;13.812;2023-12-14T08:39:07;0.85;;;0.50;;
63312;SDS011;49442;45.640;13.812;2023-12-14T08:41:33;0.82;;;0.50;;
63312;SDS011;49442;45.640;13.812;2023-12-14T08:43:59;2.97;;;0.80;;
63312;SDS011;49442;45.640;13.812;2023-12-14T08:46:27;0.60;;;0.60;;
63312;SDS011;49442;45.640;13.812;2023-12-14T08:48:52;2.38;;;0.85;;
63312;SDS011;49442;45.640;13.812;2023-12-14T08:51:18;1.23;;;0.68;;
63312;SDS011;49442;45.640;13.812;2023-12-14T08:53:45;1.27;;;0.35;;
63312;SDS011;49442;45.640;13.812;2023-12-14T08:56:11;0.73;;;0.70;;
63312;SDS011;49442;45.640;13.812;2023-12-14T08:58:36;1.08;;;0.60;;
63312;SDS011;49442;45.640;13.812;2023-12-14T09:01:02;2.63;;;0.50;;
63312;SDS011;49442;45.640;13.812;2023-12-14T09:03:28;1.58;;;0.70;;
63312;SDS011;49442;45.640;13.812;2023-12-14T09:05:54;1.52;;;1.00;;
63312;SDS011;49442;45.640;13.812;2023-12-14T09:08:20;3.53;;;0.50;;
63312;SDS011;49442;45.640;13.812;2023-12-14T09:10:45;1.60;;;0.50;;
63312;SDS011;49442;45.640;13.812;2023-12-14T09:13:11;1.52;;;0.60;;
63312;SDS011;49442;45.640;13.812;2023-12-14T09:15:36;1.65;;;1.20;;
63312;SDS011;49442;45.640;13.812;2023-12-14T09:18:02;1.98;;;0.65;;
63312;SDS011;49442;45.640;13.812;2023-12-14T09:20:28;1.45;;;1.13;;
63312;SDS011;49442;45.640;13.812;2023-12-14T09:22:53;1.67;;;0.95;;
63312;SDS011;49442;45.640;13.812;2023-12-14T09:25:19;4.60;;;1.25;;
63312;SDS011;49442;45.640;13.812;2023-12-14T09:27:45;1.45;;;1.10;;
63312;SDS011;49442;45.640;13.812;2023-12-14T09:30:11;2.45;;;0.95;;
63312;SDS011;49442;45.640;13.812;2023-12-14T09:32:37;1.00;;;0.70;;
63312;SDS011;49442;45.640;13.812;2023-12-14T09:35:05;0.52;;;0.52;;
63312;SDS011;49442;45.640;13.812;2023-12-14T09:37:31;1.45;;;0.80;;
63312;SDS011;49442;45.640;13.812;2023-12-14T09:39:57;0.73;;;0.60;;
63312;SDS011;49442;45.640;13.812;2023-12-14T09:42:23;1.05;;;0.63;;
63312;SDS011;49442;45.640;13.812;2023-12-14T09:44:49;1.23;;;0.82;;
63312;SDS011;49442;45.640;13.812;2023-12-14T09:47:17;0.80;;;0.80;;
63312;SDS011;49442;45.640;13.812;2023-12-14T09:49:43;1.88;;;1.02;;
63312;SDS011;49442;45.640;13.812;2023-12-14T09:52:10;4.20;;;1.50;;
63312;SDS011;49442;45.640;13.812;2023-12-14T09:54:36;3.10;;;1.55;;
63312;SDS011;49442;45.640;13.812;2023-12-14T09:57:01;8.88;;;2.10;;
63312;SDS011;49442;45.640;13.812;2023-12-14T09:59:27;2.55;;;1.40;;
63312;SDS011;49442;45.640;13.812;2023-12-14T10:01:53;1.63;;;1.33;;
63312;SDS011;49442;45.640;13.812;2023-12-14T10:04:35;3.00;;;1.50;;
63312;SDS011;49442;45.640;13.812;2023-12-14T10:07:01;3.78;;;1.65;;
63312;SDS011;49442;45.640;13.812;2023-12-14T10:09:31;7.18;;;1.80;;
63312;SDS011;49442;45.640;13.812;2023-12-14T10:12:02;5.43;;;2.03;;
63312;SDS011;49442;45.640;13.812;2023-12-14T10:14:30;5.32;;;2.03;;
63312;SDS011;49442;45.640;13.812;2023-12-14T10:16:55;5.32;;;1.80;;
63312;SDS011;49442;45.640;13.812;2023-12-14T10:19:21;4.85;;;2.85;;
63312;SDS011;49442;45.640;13.812;2023-12-14T10:21:48;2.30;;;2.10;;
63312;SDS011;49442;45.640;13.812;2023-12-14T10:24:14;3.22;;;1.58;;
63312;SDS011;49442;45.640;13.812;2023-12-14T10:26:40;5.15;;;1.50;;
63312;SDS011;49442;45.640;13.812;2023-12-14T10:29:06;1.88;;;1.10;;
63312;SDS011;49442;45.640;13.812;2023-12-14T10:31:32;2.17;;;1.30;;
63312;SDS011;49442;45.640;13.812;2023-12-14T10:34:02;4.28;;;1.27;;
63312;SDS011;49442;45.640;13.812;2023-12-14T10:36:29;3.92;;;1.23;;
63312;SDS011;49442;45.640;13.812;2023-12-14T10:38:56;6.78;;;1.63;;
63312;SDS011;49442;45.640;13.812;2023-12-14T10:41:24;1.88;;;1.08;;
63312;SDS011;49442;45.640;13.812;2023-12-14T10:43:53;3.30;;;1.40;;
63312;SDS011;49442;45.640;13.812;2023-12-14T10:46:20;3.05;;;1.15;;
63312;SDS011;49442;45.640;13.812;2023-12-14T10:48:49;5.63;;;1.27;;
63312;SDS011;49442;45.640;13.812;2023-12-14T10:51:20;7.22;;;2.25;;
63312;SDS011;49442;45.640;13.812;2023-12-14T10:53:46;2.25;;;0.90;;
63312;SDS011;49442;45.640;13.812;2023-12-14T10:56:14;1.30;;;1.20;;
63312;SDS011;49442;45.640;13.812;2023-12-14T11:01:14;1.58;;;1.00;;
63312;SDS011;49442;45.640;13.812;2023-12-14T11:03:42;1.58;;;1.15;;
63312;SDS011;49442;45.640;13.812;2023-12-14T11:06:19;4.93;;;0.90;;
63312;SDS011;49442;45.640;13.812;2023-12-14T11:09:06;1.90;;;1.02;;
63312;SDS011;49442;45.640;13.812;2023-12-14T11:11:56;3.03;;;0.98;;
63312;SDS011;49442;45.640;13.812;2023-12-14T11:14:22;1.30;;;1.20;;
63312;SDS011;49442;45.640;13.812;2023-12-14T11:16:49;0.90;;;0.80;;
63312;SDS011;49442;45.640;13.812;2023-12-14T11:21:47;1.42;;;1.00;;
63312;SDS011;49442;45.640;13.812;2023-12-14T11:24:23;3.05;;;1.40;;
63312;SDS011;49442;45.640;13.812;2023-12-14T11:26:49;6.40;;;1.63;;
63312;SDS011;49442;45.640;13.812;2023-12-14T11:29:15;5.75;;;1.90;;
63312;SDS011;49442;45.640;13.812;2023-12-14T11:31:42;3.20;;;1.83;;
63312;SDS011;49442;45.640;13.812;2023-12-14T11:34:07;3.22;;;1.95;;
63312;SDS011;49442;45.640;13.812;2023-12-14T11:36:33;10.57;;;2.55;;
63312;SDS011;49442;45.640;13.812;2023-12-14T11:38:59;4.35;;;2.22;;
63312;SDS011;49442;45.640;13.812;2023-12-14T11:41:25;3.40;;;2.00;;
63312;SDS011;49442;45.640;13.812;2023-12-14T11:43:51;7.07;;;2.13;;
63312;SDS011;49442;45.640;13.812;2023-12-14T11:46:17;11.50;;;2.25;;
63312;SDS011;49442;45.640;13.812;2023-12-14T11:48:44;3.65;;;2.47;;
63312;SDS011;49442;45.640;13.812;2023-12-14T11:51:11;14.07;;;2.83;;
63312;SDS011;49442;45.640;13.812;2023-12-14T11:53:37;4.05;;;2.63;;
63312;SDS011;49442;45.640;13.812;2023-12-14T11:56:07;4.63;;;3.03;;
63312;SDS011;49442;45.640;13.812;2023-12-14T11:58:34;8.30;;;3.13;;
63312;SDS011;49442;45.640;13.812;2023-12-14T12:03:42;5.93;;;3.17;;
63312;SDS011;49442;45.640;13.812;2023-12-14T12:06:18;8.07;;;3.70;;
63312;SDS011;49442;45.640;13.812;2023-12-14T12:08:48;14.75;;;3.58;;
63312;SDS011;49442;45.640;13.812;2023-12-14T12:11:17;6.65;;;3.28;;
63312;SDS011;49442;45.640;13.812;2023-12-14T12:13:44;10.40;;;3.95;;
63312;SDS011;49442;45.640;13.812;2023-12-14T12:16:14;8.07;;;4.53;;
63312;SDS011;49442;45.640;13.812;2023-12-14T12:18:40;8.43;;;3.53;;
63312;SDS011;49442;45.640;13.812;2023-12-14T12:21:06;12.85;;;3.55;;
63312;SDS011;49442;45.640;13.812;2023-12-14T12:23:34;6.95;;;3.70;;
63312;SDS011;49442;45.640;13.812;2023-12-14T12:26:00;5.35;;;2.45;;
63312;SDS011;49442;45.640;13.812;2023-12-14T12:28:25;6.38;;;3.00;;
63312;SDS011;49442;45.640;13.812;2023-12-14T12:30:52;4.68;;;2.80;;
63312;SDS011;49442;45.640;13.812;2023-12-14T12:33:18;6.70;;;3.28;;
63312;SDS011;49442;45.640;13.812;2023-12-14T12:35:43;5.28;;;3.05;;
63312;SDS011;49442;45.640;13.812;2023-12-14T12:38:09;4.88;;;3.10;;
63312;SDS011;49442;45.640;13.812;2023-12-14T12:40:35;6.68;;;3.28;;
63312;SDS011;49442;45.640;13.812;2023-12-14T12:43:00;6.95;;;3.03;;
63312;SDS011;49442;45.640;13.812;2023-12-14T12:45:27;3.10;;;2.30;;
63312;SDS011;49442;45.640;13.812;2023-12-14T12:47:53;5.88;;;2.60;;
63312;SDS011;49442;45.640;13.812;2023-12-14T12:50:18;6.78;;;2.35;;
63312;SDS011;49442;45.640;13.812;2023-12-14T12:52:45;7.00;;;2.45;;
63312;SDS011;49442;45.640;13.812;2023-12-14T12:55:13;3.75;;;2.40;;
63312;SDS011;49442;45.640;13.812;2023-12-14T12:57:40;5.90;;;2.45;;
63312;SDS011;49442;45.640;13.812;2023-12-14T13:00:07;4.00;;;2.63;;
63312;SDS011;49442;45.640;13.812;2023-12-14T13:02:36;5.45;;;3.15;;
63312;SDS011;49442;45.640;13.812;2023-12-14T13:05:04;5.35;;;3.15;;
63312;SDS011;49442;45.640;13.812;2023-12-14T13:07:31;6.22;;;2.75;;
63312;SDS011;49442;45.640;13.812;2023-12-14T13:09:57;9.05;;;3.03;;
63312;SDS011;49442;45.640;13.812;2023-12-14T13:12:22;10.30;;;2.85;;
63312;SDS011;49442;45.640;13.812;2023-12-14T13:14:48;5.75;;;2.50;;
63312;SDS011;49442;45.640;13.812;2023-12-14T13:17:14;4.25;;;2.83;;
63312;SDS011;49442;45.640;13.812;2023-12-14T13:19:42;11.10;;;3.58;;
63312;SDS011;49442;45.640;13.812;2023-12-14T13:22:11;6.80;;;3.25;;
63312;SDS011;49442;45.640;13.812;2023-12-14T13:24:37;13.68;;;6.57;;
63312;SDS011;49442;45.640;13.812;2023-12-14T13:27:03;7.82;;;4.68;;
63312;SDS011;49442;45.640;13.812;2023-12-14T13:29:30;6.07;;;3.30;;
63312;SDS011;49442;45.640;13.812;2023-12-14T13:31:57;12.05;;;3.30;;
63312;SDS011;49442;45.640;13.812;2023-12-14T13:34:24;6.95;;;3.30;;
63312;SDS011;49442;45.640;13.812;2023-12-14T13:36:50;4.57;;;3.60;;
63312;SDS011;49442;45.640;13.812;2023-12-14T13:39:16;8.13;;;4.75;;
63312;SDS011;49442;45.640;13.812;2023-12-14T13:41:42;6.80;;;3.10;;
63312;SDS011;49442;45.640;13.812;2023-12-14T13:44:08;4.72;;;2.83;;
63312;SDS011;49442;45.640;13.812;2023-12-14T13:46:34;4.38;;;3.15;;
63312;SDS011;49442;45.640;13.812;2023-12-14T13:49:00;5.85;;;3.33;;
63312;SDS011;49442;45.640;13.812;2023-12-14T13:51:27;6.20;;;2.80;;
63312;SDS011;49442;45.640;13.812;2023-12-14T13:53:53;5.20;;;2.25;;
63312;SDS011;49442;45.640;13.812;2023-12-14T13:56:18;7.00;;;2.28;;
63312;SDS011;49442;45.640;13.812;2023-12-14T13:58:44;10.15;;;2.25;;
63312;SDS011;49442;45.640;13.812;2023-12-14T14:01:10;10.68;;;2.58;;
63312;SDS011;49442;45.640;13.812;2023-12-14T14:03:35;6.45;;;2.22;;
63312;SDS011;49442;45.640;13.812;2023-12-14T14:06:02;5.50;;;2.35;;
63312;SDS011;49442;45.640;13.812;2023-12-14T14:08:29;7.38;;;2.20;;
63312;SDS011;49442;45.640;13.812;2023-12-14T14:10:56;3.75;;;1.55;;
63312;SDS011;49442;45.640;13.812;2023-12-14T14:13:22;3.85;;;1.90;;
63312;SDS011;49442;45.640;13.812;2023-12-14T14:15:48;2.17;;;1.50;;
63312;SDS011;49442;45.640;13.812;2023-12-14T14:18:14;3.75;;;1.30;;
63312;SDS011;49442;45.640;13.812;2023-12-14T14:20:39;3.10;;;1.80;;
63312;SDS011;49442;45.640;13.812;2023-12-14T14:23:05;3.15;;;2.45;;
63312;SDS011;49442;45.640;13.812;2023-12-14T14:25:31;4.13;;;2.05;;
63312;SDS011;49442;45.640;13.812;2023-12-14T14:27:57;13.30;;;6.00;;
63312;SDS011;49442;45.640;13.812;2023-12-14T14:30:23;22.50;;;11.80;;
63312;SDS011;49442;45.640;13.812;2023-12-14T14:32:49;27.38;;;15.23;;
63312;SDS011;49442;45.640;13.812;2023-12-14T14:35:15;18.80;;;9.60;;